sensor_id;sensor_type;location;lat;lon;timestamp;pressure;altitude;pressure_sealevel;temperature;humidity
59787;BME280;45672;51.612;5.536;2022-09-09T00:02:05;100586.00;;;14.18;100.00
59787;BME280;45672;51.612;5.536;2022-09-09T00:04:36;100596.13;;;14.22;100.00
59787;BME280;45672;51.612;5.536;2022-09-09T00:07:13;100595.94;;;14.24;100.00
59787;BME280;45672;51.612;5.536;2022-09-09T00:12:55;100580.06;;;14.22;100.00
59787;BME280;45672;51.612;5.536;2022-09-09T00:15:30;100587.19;;;14.30;100.00
59787;BME280;45672;51.612;5.536;2022-09-09T00:18:10;100586.34;;;14.29;100.00
59787;BME280;45672;51.612;5.536;2022-09-09T00:20:52;100570.84;;;14.25;100.00
59787;BME280;45672;51.612;5.536;2022-09-09T00:23:31;100576.09;;;14.18;100.00
59787;BME280;45672;51.612;5.536;2022-09-09T00:31:33;100571.41;;;14.20;100.00
59787;BME280;45672;51.612;5.536;2022-09-09T00:34:05;100582.75;;;14.22;100.00
59787;BME280;45672;51.612;5.536;2022-09-09T00:36:35;100580.06;;;14.22;100.00
59787;BME280;45672;51.612;5.536;2022-09-09T00:39:03;100578.25;;;14.23;100.00
59787;BME280;45672;51.612;5.536;2022-09-09T00:44:33;100571.41;;;14.20;100.00
59787;BME280;45672;51.612;5.536;2022-09-09T00:47:16;100579.06;;;14.23;100.00
59787;BME280;45672;51.612;5.536;2022-09-09T00:50:00;100569.19;;;14.24;100.00
59787;BME280;45672;51.612;5.536;2022-09-09T00:55:10;100558.56;;;14.16;100.00
59787;BME280;45672;51.612;5.536;2022-09-09T00:57:38;100551.78;;;14.13;100.00
59787;BME280;45672;51.612;5.536;2022-09-09T01:00:25;100556.75;;;14.16;100.00
59787;BME280;45672;51.612;5.536;2022-09-09T01:03:18;100547.44;;;14.12;100.00
59787;BME280;45672;51.612;5.536;2022-09-09T01:08:56;100551.59;;;14.14;100.00
59787;BME280;45672;51.612;5.536;2022-09-09T01:11:38;100549.09;;;14.13;100.00
59787;BME280;45672;51.612;5.536;2022-09-09T01:14:30;100556.09;;;14.14;100.00
59787;BME280;45672;51.612;5.536;2022-09-09T01:17:05;100553.22;;;14.16;100.00
59787;BME280;45672;51.612;5.536;2022-09-09T01:20:00;100556.38;;;14.19;100.00
59787;BME280;45672;51.612;5.536;2022-09-09T01:28:08;100559.44;;;14.16;100.00
59787;BME280;45672;51.612;5.536;2022-09-09T01:30:37;100554.06;;;14.16;100.00
59787;BME280;45672;51.612;5.536;2022-09-09T01:33:03;100556.84;;;14.08;100.00
59787;BME280;45672;51.612;5.536;2022-09-09T01:35:46;100553.34;;;14.07;100.00
59787;BME280;45672;51.612;5.536;2022-09-09T01:38:14;100556.84;;;14.08;100.00
59787;BME280;45672;51.612;5.536;2022-09-09T01:40:40;100551.50;;;14.08;100.00
59787;BME280;45672;51.612;5.536;2022-09-09T01:43:06;100556.47;;;14.11;100.00
59787;BME280;45672;51.612;5.536;2022-09-09T01:45:33;100548.00;;;14.07;100.00
59787;BME280;45672;51.612;5.536;2022-09-09T01:47:59;100540.97;;;14.06;100.00
59787;BME280;45672;51.612;5.536;2022-09-09T01:50:24;100542.47;;;14.09;100.00
59787;BME280;45672;51.612;5.536;2022-09-09T01:52:53;100543.09;;;14.11;100.00
59787;BME280;45672;51.612;5.536;2022-09-09T01:55:37;100547.25;;;14.13;100.00
59787;BME280;45672;51.612;5.536;2022-09-09T02:00:56;100545.19;;;14.16;100.00
59787;BME280;45672;51.612;5.536;2022-09-09T02:03:27;100548.25;;;14.12;100.00
59787;BME280;45672;51.612;5.536;2022-09-09T02:06:04;100533.88;;;14.13;100.00
59787;BME280;45672;51.612;5.536;2022-09-09T02:08:40;100527.31;;;14.16;100.00
59787;BME280;45672;51.612;5.536;2022-09-09T02:11:13;100533.22;;;14.11;100.00
59787;BME280;45672;51.612;5.536;2022-09-09T02:13:39;100526.84;;;14.12;100.00
59787;BME280;45672;51.612;5.536;2022-09-09T02:16:08;100519.66;;;14.13;100.00
59787;BME280;45672;51.612;5.536;2022-09-09T02:21:17;100515.59;;;14.02;100.00
59787;BME280;45672;51.612;5.536;2022-09-09T02:23:44;100513.13;;;14.01;100.00
59787;BME280;45672;51.612;5.536;2022-09-09T02:26:12;100517.66;;;14.00;100.00
59787;BME280;45672;51.612;5.536;2022-09-09T02:28:44;100508.78;;;14.00;100.00
59787;BME280;45672;51.612;5.536;2022-09-09T02:31:11;100507.13;;;13.99;100.00
59787;BME280;45672;51.612;5.536;2022-09-09T02:33:42;100506.94;;;14.00;100.00
59787;BME280;45672;51.612;5.536;2022-09-09T02:36:09;100510.44;;;14.01;100.00
59787;BME280;45672;51.612;5.536;2022-09-09T02:38:40;100512.66;;;13.97;100.00
59787;BME280;45672;51.612;5.536;2022-09-09T02:41:07;100512.50;;;13.99;100.00
59787;BME280;45672;51.612;5.536;2022-09-09T02:43:34;100515.69;;;13.94;100.00
59787;BME280;45672;51.612;5.536;2022-09-09T02:46:12;100519.22;;;13.94;100.00
59787;BME280;45672;51.612;5.536;2022-09-09T02:49:03;100510.34;;;13.94;100.00
59787;BME280;45672;51.612;5.536;2022-09-09T02:54:17;100512.03;;;13.95;100.00
59787;BME280;45672;51.612;5.536;2022-09-09T02:56:51;100525.75;;;13.92;100.00
59787;BME280;45672;51.612;5.536;2022-09-09T02:59:20;100522.81;;;13.87;100.00
59787;BME280;45672;51.612;5.536;2022-09-09T03:01:45;100524.09;;;13.91;100.00
59787;BME280;45672;51.612;5.536;2022-09-09T03:04:12;100524.56;;;13.94;100.00
59787;BME280;45672;51.612;5.536;2022-09-09T03:06:37;100528.69;;;13.97;100.00
59787;BME280;45672;51.612;5.536;2022-09-09T03:09:02;100537.38;;;13.99;100.00
59787;BME280;45672;51.612;5.536;2022-09-09T03:11:28;100536.19;;;14.02;100.00
59787;BME280;45672;51.612;5.536;2022-09-09T03:13:54;100524.44;;;14.03;100.00
59787;BME280;45672;51.612;5.536;2022-09-09T03:16:22;100526.50;;;14.01;100.00
59787;BME280;45672;51.612;5.536;2022-09-09T03:18:47;100519.47;;;14.00;100.00
59787;BME280;45672;51.612;5.536;2022-09-09T03:21:12;100513.13;;;14.01;100.00
59787;BME280;45672;51.612;5.536;2022-09-09T03:23:37;100522.44;;;14.05;100.00
59787;BME280;45672;51.612;5.536;2022-09-09T03:26:03;100522.25;;;14.06;100.00
59787;BME280;45672;51.612;5.536;2022-09-09T03:28:28;100529.81;;;14.03;100.00
59787;BME280;45672;51.612;5.536;2022-09-09T03:31:00;100520.78;;;14.04;100.00
59787;BME280;45672;51.612;5.536;2022-09-09T03:33:25;100518.47;;;14.01;100.00
59787;BME280;45672;51.612;5.536;2022-09-09T03:35:50;100527.88;;;13.96;100.00
59787;BME280;45672;51.612;5.536;2022-09-09T03:38:16;100532.84;;;14.00;100.00
59787;BME280;45672;51.612;5.536;2022-09-09T03:40:52;100531.84;;;14.01;100.00
59787;BME280;45672;51.612;5.536;2022-09-09T03:43:25;100529.81;;;14.03;100.00
59787;BME280;45672;51.612;5.536;2022-09-09T03:45:50;100526.78;;;14.06;100.00
59787;BME280;45672;51.612;5.536;2022-09-09T03:48:17;100521.69;;;14.11;100.00
59787;BME280;45672;51.612;5.536;2022-09-09T03:50:46;100526.47;;;14.16;100.00
59787;BME280;45672;51.612;5.536;2022-09-09T03:53:11;100531.91;;;14.22;100.00
59787;BME280;45672;51.612;5.536;2022-09-09T03:55:37;100522.69;;;14.25;100.00
59787;BME280;45672;51.612;5.536;2022-09-09T03:58:02;100520.63;;;14.27;100.00
59787;BME280;45672;51.612;5.536;2022-09-09T04:00:27;100523.50;;;14.25;100.00
59787;BME280;45672;51.612;5.536;2022-09-09T04:02:54;100520.47;;;14.28;100.00
59787;BME280;45672;51.612;5.536;2022-09-09T04:05:19;100516.22;;;14.34;100.00
59787;BME280;45672;51.612;5.536;2022-09-09T04:07:44;100528.03;;;14.40;100.00
59787;BME280;45672;51.612;5.536;2022-09-09T04:10:10;100511.31;;;14.38;100.00
59787;BME280;45672;51.612;5.536;2022-09-09T04:12:35;100512.31;;;14.37;100.00
59787;BME280;45672;51.612;5.536;2022-09-09T04:15:01;100520.72;;;14.34;100.00
59787;BME280;45672;51.612;5.536;2022-09-09T04:17:27;100505.06;;;14.30;100.00
59787;BME280;45672;51.612;5.536;2022-09-09T04:19:52;100514.19;;;14.36;100.00
59787;BME280;45672;51.612;5.536;2022-09-09T04:22:18;100510.28;;;14.39;100.00
59787;BME280;45672;51.612;5.536;2022-09-09T04:24:43;100506.78;;;14.38;100.00
59787;BME280;45672;51.612;5.536;2022-09-09T04:27:08;100513.41;;;14.42;100.00
59787;BME280;45672;51.612;5.536;2022-09-09T04:29:34;100510.72;;;14.42;100.00
59787;BME280;45672;51.612;5.536;2022-09-09T04:31:59;100509.53;;;14.45;100.00
59787;BME280;45672;51.612;5.536;2022-09-09T04:34:28;100509.34;;;14.46;100.00
59787;BME280;45672;51.612;5.536;2022-09-09T04:36:54;100511.19;;;14.46;100.00
59787;BME280;45672;51.612;5.536;2022-09-09T04:39:20;100512.22;;;14.45;100.00
59787;BME280;45672;51.612;5.536;2022-09-09T04:41:45;100512.22;;;14.45;100.00
59787;BME280;45672;51.612;5.536;2022-09-09T04:44:10;100506.84;;;14.45;100.00
59787;BME280;45672;51.612;5.536;2022-09-09T04:46:36;100507.50;;;14.47;100.00
59787;BME280;45672;51.612;5.536;2022-09-09T04:49:01;100489.41;;;14.49;100.00
59787;BME280;45672;51.612;5.536;2022-09-09T04:51:26;100502.22;;;14.54;100.00
59787;BME280;45672;51.612;5.536;2022-09-09T04:53:53;100500.00;;;14.57;100.00
59787;BME280;45672;51.612;5.536;2022-09-09T04:56:19;100497.50;;;14.56;100.00
59787;BME280;45672;51.612;5.536;2022-09-09T04:58:44;100492.97;;;14.56;100.00
59787;BME280;45672;51.612;5.536;2022-09-09T05:01:12;100486.72;;;14.49;100.00
59787;BME280;45672;51.612;5.536;2022-09-09T05:03:38;100491.06;;;14.50;100.00
59787;BME280;45672;51.612;5.536;2022-09-09T05:06:13;100494.13;;;14.47;100.00
59787;BME280;45672;51.612;5.536;2022-09-09T05:08:40;100495.75;;;14.48;100.00
59787;BME280;45672;51.612;5.536;2022-09-09T05:11:18;100494.75;;;14.49;100.00
59787;BME280;45672;51.612;5.536;2022-09-09T05:13:44;100489.03;;;14.52;100.00
59787;BME280;45672;51.612;5.536;2022-09-09T05:16:10;100490.31;;;14.56;100.00
59787;BME280;45672;51.612;5.536;2022-09-09T05:18:39;100490.94;;;14.58;100.00
59787;BME280;45672;51.612;5.536;2022-09-09T05:21:05;100488.34;;;14.65;100.00
59787;BME280;45672;51.612;5.536;2022-09-09T05:23:31;100492.13;;;14.71;100.00
59787;BME280;45672;51.612;5.536;2022-09-09T05:25:57;100489.25;;;14.72;100.00
59787;BME280;45672;51.612;5.536;2022-09-09T05:28:24;100490.28;;;14.71;100.00
59787;BME280;45672;51.612;5.536;2022-09-09T05:31:03;100488.44;;;14.72;100.00
59787;BME280;45672;51.612;5.536;2022-09-09T05:33:30;100492.97;;;14.71;100.00
59787;BME280;45672;51.612;5.536;2022-09-09T05:35:57;100482.44;;;14.70;100.00
59787;BME280;45672;51.612;5.536;2022-09-09T05:38:23;100490.47;;;14.70;100.00
59787;BME280;45672;51.612;5.536;2022-09-09T05:40:50;100479.13;;;14.68;100.00
59787;BME280;45672;51.612;5.536;2022-09-09T05:43:16;100485.47;;;14.67;100.00
59787;BME280;45672;51.612;5.536;2022-09-09T05:45:41;100490.84;;;14.67;100.00
59787;BME280;45672;51.612;5.536;2022-09-09T05:48:06;100476.44;;;14.68;100.00
59787;BME280;45672;51.612;5.536;2022-09-09T05:50:32;100489.63;;;14.69;100.00
59787;BME280;45672;51.612;5.536;2022-09-09T05:52:58;100489.81;;;14.68;100.00
59787;BME280;45672;51.612;5.536;2022-09-09T05:55:24;100499.53;;;14.69;100.00
59787;BME280;45672;51.612;5.536;2022-09-09T05:57:50;100495.06;;;14.76;100.00
59787;BME280;45672;51.612;5.536;2022-09-09T06:00:17;100502.31;;;14.82;100.00
59787;BME280;45672;51.612;5.536;2022-09-09T06:02:43;100509.84;;;14.93;100.00
59787;BME280;45672;51.612;5.536;2022-09-09T06:05:08;100502.06;;;14.98;100.00
59787;BME280;45672;51.612;5.536;2022-09-09T06:07:34;100508.06;;;15.00;100.00
59787;BME280;45672;51.612;5.536;2022-09-09T06:09:59;100514.47;;;14.99;100.00
59787;BME280;45672;51.612;5.536;2022-09-09T06:12:25;100513.69;;;15.06;100.00
59787;BME280;45672;51.612;5.536;2022-09-09T06:14:50;100511.63;;;15.08;100.00
59787;BME280;45672;51.612;5.536;2022-09-09T06:17:16;100518.06;;;15.13;100.00
59787;BME280;45672;51.612;5.536;2022-09-09T06:19:42;100506.19;;;15.23;100.00
59787;BME280;45672;51.612;5.536;2022-09-09T06:22:07;100513.09;;;15.39;100.00
59787;BME280;45672;51.612;5.536;2022-09-09T06:24:32;100506.81;;;15.53;100.00
59787;BME280;45672;51.612;5.536;2022-09-09T06:26:58;100506.13;;;15.73;100.00
59787;BME280;45672;51.612;5.536;2022-09-09T06:29:23;100499.72;;;16.02;100.00
59787;BME280;45672;51.612;5.536;2022-09-09T06:31:48;100502.75;;;16.54;99.81
59787;BME280;45672;51.612;5.536;2022-09-09T06:34:14;100513.00;;;17.12;94.70
59787;BME280;45672;51.612;5.536;2022-09-09T06:36:39;100515.47;;;17.47;93.75
59787;BME280;45672;51.612;5.536;2022-09-09T06:39:05;100506.91;;;18.04;89.94
59787;BME280;45672;51.612;5.536;2022-09-09T06:41:32;100506.22;;;18.60;86.59
59787;BME280;45672;51.612;5.536;2022-09-09T06:43:58;100514.34;;;19.18;83.46
59787;BME280;45672;51.612;5.536;2022-09-09T06:46:28;100506.38;;;19.48;81.77
59787;BME280;45672;51.612;5.536;2022-09-09T06:48:55;100511.06;;;19.78;79.29
59787;BME280;45672;51.612;5.536;2022-09-09T06:51:25;100504.75;;;19.66;77.05
59787;BME280;45672;51.612;5.536;2022-09-09T06:53:53;100500.91;;;19.36;80.05
59787;BME280;45672;51.612;5.536;2022-09-09T06:58:46;100507.44;;;20.40;75.69
59787;BME280;45672;51.612;5.536;2022-09-09T07:01:14;100504.75;;;20.40;73.29
59787;BME280;45672;51.612;5.536;2022-09-09T07:03:52;100510.13;;;19.91;76.76
59787;BME280;45672;51.612;5.536;2022-09-09T07:06:23;100504.97;;;19.64;76.38
59787;BME280;45672;51.612;5.536;2022-09-09T07:08:53;100503.34;;;20.19;76.06
59787;BME280;45672;51.612;5.536;2022-09-09T07:11:20;100497.53;;;20.33;72.67
59787;BME280;45672;51.612;5.536;2022-09-09T07:13:46;100503.50;;;20.05;72.93
59787;BME280;45672;51.612;5.536;2022-09-09T07:16:13;100509.41;;;20.63;72.48
59787;BME280;45672;51.612;5.536;2022-09-09T07:18:39;100510.84;;;21.20;68.20
59787;BME280;45672;51.612;5.536;2022-09-09T07:21:06;100511.69;;;21.79;66.90
59787;BME280;45672;51.612;5.536;2022-09-09T07:23:32;100507.25;;;22.14;65.04
59787;BME280;45672;51.612;5.536;2022-09-09T07:25:58;100512.44;;;22.56;62.90
59787;BME280;45672;51.612;5.536;2022-09-09T07:28:24;100512.72;;;22.31;61.47
59787;BME280;45672;51.612;5.536;2022-09-09T07:30:56;100499.28;;;22.65;62.67
59787;BME280;45672;51.612;5.536;2022-09-09T07:33:23;100508.38;;;21.77;62.56
59787;BME280;45672;51.612;5.536;2022-09-09T07:35:48;100499.19;;;21.07;64.64
59787;BME280;45672;51.612;5.536;2022-09-09T07:38:14;100503.31;;;20.98;66.73
59787;BME280;45672;51.612;5.536;2022-09-09T07:40:40;100498.28;;;20.41;66.90
59787;BME280;45672;51.612;5.536;2022-09-09T07:43:05;100501.53;;;20.12;67.84
59787;BME280;45672;51.612;5.536;2022-09-09T07:45:31;100503.59;;;19.98;69.77
59787;BME280;45672;51.612;5.536;2022-09-09T07:47:57;100497.75;;;20.02;70.09
59787;BME280;45672;51.612;5.536;2022-09-09T07:50:23;100501.69;;;19.62;70.40
59787;BME280;45672;51.612;5.536;2022-09-09T07:52:50;100507.94;;;19.12;72.91
59787;BME280;45672;51.612;5.536;2022-09-09T07:55:15;100503.75;;;18.91;74.38
59787;BME280;45672;51.612;5.536;2022-09-09T07:57:40;100508.78;;;18.81;73.83
59787;BME280;45672;51.612;5.536;2022-09-09T08:00:06;100511.03;;;18.84;74.48
59787;BME280;45672;51.612;5.536;2022-09-09T08:02:31;100511.25;;;18.82;74.11
59787;BME280;45672;51.612;5.536;2022-09-09T08:04:57;100501.50;;;18.88;75.22
59787;BME280;45672;51.612;5.536;2022-09-09T08:07:22;100503.66;;;18.72;74.66
59787;BME280;45672;51.612;5.536;2022-09-09T08:09:48;100509.06;;;18.66;75.43
59787;BME280;45672;51.612;5.536;2022-09-09T08:12:14;100507.13;;;18.80;74.59
59787;BME280;45672;51.612;5.536;2022-09-09T08:14:39;100497.97;;;18.87;74.62
59787;BME280;45672;51.612;5.536;2022-09-09T08:17:05;100510.69;;;18.73;75.26
59787;BME280;45672;51.612;5.536;2022-09-09T08:19:30;100509.72;;;18.61;75.61
59787;BME280;45672;51.612;5.536;2022-09-09T08:21:59;100517.94;;;18.73;75.63
59787;BME280;45672;51.612;5.536;2022-09-09T08:24:24;100512.72;;;18.78;75.04
59787;BME280;45672;51.612;5.536;2022-09-09T08:26:49;100518.19;;;18.65;75.39
59787;BME280;45672;51.612;5.536;2022-09-09T08:29:15;100517.41;;;18.57;74.83
59787;BME280;45672;51.612;5.536;2022-09-09T08:34:09;100519.88;;;18.59;75.92
59787;BME280;45672;51.612;5.536;2022-09-09T08:36:38;100514.09;;;18.62;75.49
59787;BME280;45672;51.612;5.536;2022-09-09T08:39:05;100518.97;;;18.72;75.17
59787;BME280;45672;51.612;5.536;2022-09-09T08:41:50;100528.50;;;18.74;75.34
59787;BME280;45672;51.612;5.536;2022-09-09T08:47:50;100523.34;;;18.66;75.69
59787;BME280;45672;51.612;5.536;2022-09-09T08:53:16;100536.53;;;18.49;75.84
59787;BME280;45672;51.612;5.536;2022-09-09T08:55:48;100535.88;;;18.54;75.76
59787;BME280;45672;51.612;5.536;2022-09-09T08:58:23;100534.84;;;18.55;75.84
59787;BME280;45672;51.612;5.536;2022-09-09T09:04:00;100533.00;;;18.49;75.81
59787;BME280;45672;51.612;5.536;2022-09-09T09:09:02;100534.75;;;18.30;75.65
59787;BME280;45672;51.612;5.536;2022-09-09T09:11:38;100545.56;;;18.16;75.59
59787;BME280;45672;51.612;5.536;2022-09-09T09:14:24;100543.31;;;18.06;76.96
59787;BME280;45672;51.612;5.536;2022-09-09T09:19:33;100545.84;;;17.95;77.35
59787;BME280;45672;51.612;5.536;2022-09-09T09:24:55;100538.53;;;18.15;76.47
59787;BME280;45672;51.612;5.536;2022-09-09T09:27:36;100547.22;;;18.17;76.45
59787;BME280;45672;51.612;5.536;2022-09-09T09:30:26;100548.03;;;18.24;77.24
59787;BME280;45672;51.612;5.536;2022-09-09T09:33:03;100553.53;;;18.43;76.35
59787;BME280;45672;51.612;5.536;2022-09-09T09:35:30;100543.19;;;18.47;74.83
59787;BME280;45672;51.612;5.536;2022-09-09T09:37:56;100544.41;;;18.51;75.33
59787;BME280;45672;51.612;5.536;2022-09-09T09:40:22;100548.31;;;18.55;74.93
59787;BME280;45672;51.612;5.536;2022-09-09T09:42:52;100549.13;;;18.62;74.64
59787;BME280;45672;51.612;5.536;2022-09-09T09:47:58;100544.81;;;18.48;74.56
59787;BME280;45672;51.612;5.536;2022-09-09T09:50:24;100551.09;;;18.35;77.44
59787;BME280;45672;51.612;5.536;2022-09-09T09:52:57;100543.50;;;18.18;78.47
59787;BME280;45672;51.612;5.536;2022-09-09T09:55:24;100551.94;;;18.29;78.06
59787;BME280;45672;51.612;5.536;2022-09-09T09:57:50;100534.09;;;18.41;77.46
59787;BME280;45672;51.612;5.536;2022-09-09T10:00:21;100538.13;;;18.57;76.18
59787;BME280;45672;51.612;5.536;2022-09-09T10:02:47;100540.97;;;18.69;76.88
59787;BME280;45672;51.612;5.536;2022-09-09T10:05:19;100542.16;;;18.41;79.05
59787;BME280;45672;51.612;5.536;2022-09-09T10:07:46;100541.63;;;18.12;78.99
59787;BME280;45672;51.612;5.536;2022-09-09T10:10:16;100543.94;;;18.08;80.74
59787;BME280;45672;51.612;5.536;2022-09-09T10:13:04;100541.63;;;18.12;78.56
59787;BME280;45672;51.612;5.536;2022-09-09T10:18:57;100552.44;;;18.05;79.31
59787;BME280;45672;51.612;5.536;2022-09-09T10:21:45;100548.34;;;17.69;83.97
59787;BME280;45672;51.612;5.536;2022-09-09T10:29:51;100543.81;;;16.96;88.94
59787;BME280;45672;51.612;5.536;2022-09-09T10:35:43;100559.94;;;17.10;88.70
59787;BME280;45672;51.612;5.536;2022-09-09T10:40:47;100557.50;;;17.48;87.97
59787;BME280;45672;51.612;5.536;2022-09-09T10:46:17;100567.41;;;17.54;86.83
59787;BME280;45672;51.612;5.536;2022-09-09T10:49:08;100563.88;;;17.74;87.26
59787;BME280;45672;51.612;5.536;2022-09-09T10:54:30;100560.34;;;17.87;85.71
59787;BME280;45672;51.612;5.536;2022-09-09T10:57:04;100558.47;;;17.81;86.08
59787;BME280;45672;51.612;5.536;2022-09-09T10:59:37;100562.22;;;17.73;86.51
59787;BME280;45672;51.612;5.536;2022-09-09T11:04:52;100560.56;;;17.65;86.17
59787;BME280;45672;51.612;5.536;2022-09-09T11:07:51;100552.47;;;17.92;85.91
59787;BME280;45672;51.612;5.536;2022-09-09T11:10:38;100564.84;;;18.06;86.05
59787;BME280;45672;51.612;5.536;2022-09-09T11:13:11;100549.63;;;18.39;84.97
59787;BME280;45672;51.612;5.536;2022-09-09T11:15:44;100543.19;;;18.40;82.54
59787;BME280;45672;51.612;5.536;2022-09-09T11:18:15;100555.44;;;18.36;83.34
59787;BME280;45672;51.612;5.536;2022-09-09T11:20:44;100554.44;;;18.30;85.17
59787;BME280;45672;51.612;5.536;2022-09-09T11:23:15;100543.50;;;18.18;85.53
59787;BME280;45672;51.612;5.536;2022-09-09T11:25:49;100556.22;;;17.91;84.48
59787;BME280;45672;51.612;5.536;2022-09-09T11:37:10;100543.94;;;18.08;85.96
59787;BME280;45672;51.612;5.536;2022-09-09T11:42:27;100538.47;;;18.35;84.75
59787;BME280;45672;51.612;5.536;2022-09-09T11:44:52;100549.59;;;18.46;83.43
59787;BME280;45672;51.612;5.536;2022-09-09T11:47:37;100549.34;;;18.54;83.11
59787;BME280;45672;51.612;5.536;2022-09-09T11:55:10;100549.72;;;18.57;81.12
59787;BME280;45672;51.612;5.536;2022-09-09T11:57:37;100539.47;;;18.41;81.82
59787;BME280;45672;51.612;5.536;2022-09-09T12:00:04;100544.44;;;18.37;81.96
59787;BME280;45672;51.612;5.536;2022-09-09T12:02:29;100545.34;;;18.24;81.83
59787;BME280;45672;51.612;5.536;2022-09-09T12:05:07;100550.78;;;18.04;84.82
59787;BME280;45672;51.612;5.536;2022-09-09T12:07:58;100546.66;;;17.88;84.87
59787;BME280;45672;51.612;5.536;2022-09-09T12:10:35;100544.59;;;17.97;85.17
59787;BME280;45672;51.612;5.536;2022-09-09T12:13:17;100542.22;;;18.27;84.48
59787;BME280;45672;51.612;5.536;2022-09-09T12:15:52;100541.94;;;18.42;83.00
59787;BME280;45672;51.612;5.536;2022-09-09T12:18:39;100546.81;;;18.59;83.34
59787;BME280;45672;51.612;5.536;2022-09-09T12:22:00;100547.75;;;18.85;82.04
59787;BME280;45672;51.612;5.536;2022-09-09T12:24:37;100536.66;;;19.00;80.46
59787;BME280;45672;51.612;5.536;2022-09-09T12:28:01;100545.00;;;19.23;80.25
59787;BME280;45672;51.612;5.536;2022-09-09T12:30:10;100531.19;;;19.57;77.07
59787;BME280;45672;51.612;5.536;2022-09-09T12:32:37;100535.63;;;19.70;75.77
59787;BME280;45672;51.612;5.536;2022-09-09T12:35:10;100533.09;;;19.75;75.82
59787;BME280;45672;51.612;5.536;2022-09-09T12:37:42;100537.66;;;19.56;75.77
59787;BME280;45672;51.612;5.536;2022-09-09T12:40:30;100535.06;;;19.42;76.39
59787;BME280;45672;51.612;5.536;2022-09-09T12:42:57;100538.22;;;19.39;76.32
59787;BME280;45672;51.612;5.536;2022-09-09T12:45:30;100535.13;;;19.36;75.85
59787;BME280;45672;51.612;5.536;2022-09-09T12:47:57;100540.69;;;19.41;75.47
59787;BME280;45672;51.612;5.536;2022-09-09T12:50:28;100530.06;;;19.46;74.54
59787;BME280;45672;51.612;5.536;2022-09-09T12:52:56;100527.25;;;19.34;74.24
59787;BME280;45672;51.612;5.536;2022-09-09T12:55:35;100526.56;;;19.20;74.78
59787;BME280;45672;51.612;5.536;2022-09-09T12:58:02;100524.63;;;19.02;74.18
59787;BME280;45672;51.612;5.536;2022-09-09T13:00:33;100526.13;;;18.91;76.84
59787;BME280;45672;51.612;5.536;2022-09-09T13:03:01;100525.25;;;18.66;78.49
59787;BME280;45672;51.612;5.536;2022-09-09T13:05:38;100532.41;;;18.47;80.49
59787;BME280;45672;51.612;5.536;2022-09-09T13:08:10;100525.97;;;18.02;85.14
59787;BME280;45672;51.612;5.536;2022-09-09T13:13:13;100529.78;;;17.14;90.89
59787;BME280;45672;51.612;5.536;2022-09-09T13:15:40;100529.09;;;16.79;96.55
59787;BME280;45672;51.612;5.536;2022-09-09T13:18:14;100533.94;;;16.48;98.58
59787;BME280;45672;51.612;5.536;2022-09-09T13:20:46;100533.53;;;16.45;100.00
59787;BME280;45672;51.612;5.536;2022-09-09T13:23:11;100526.97;;;16.61;100.00
59787;BME280;45672;51.612;5.536;2022-09-09T13:25:38;100525.56;;;16.71;100.00
59787;BME280;45672;51.612;5.536;2022-09-09T13:28:05;100518.97;;;16.94;100.00
59787;BME280;45672;51.612;5.536;2022-09-09T13:30:35;100521.06;;;17.05;100.00
59787;BME280;45672;51.612;5.536;2022-09-09T13:35:35;100514.88;;;17.32;100.00
59787;BME280;45672;51.612;5.536;2022-09-09T13:38:07;100514.25;;;17.50;100.00
59787;BME280;45672;51.612;5.536;2022-09-09T13:40:34;100498.88;;;17.77;100.00
59787;BME280;45672;51.612;5.536;2022-09-09T13:42:59;100505.66;;;18.00;100.00
59787;BME280;45672;51.612;5.536;2022-09-09T13:45:26;100505.22;;;18.09;100.00
59787;BME280;45672;51.612;5.536;2022-09-09T13:47:52;100501.91;;;18.07;98.30
59787;BME280;45672;51.612;5.536;2022-09-09T13:50:27;100502.31;;;18.11;97.41
59787;BME280;45672;51.612;5.536;2022-09-09T13:52:55;100503.09;;;18.25;95.21
59787;BME280;45672;51.612;5.536;2022-09-09T13:55:24;100495.38;;;18.35;95.79
59787;BME280;45672;51.612;5.536;2022-09-09T13:57:55;100502.44;;;18.30;92.27
59787;BME280;45672;51.612;5.536;2022-09-09T14:00:21;100504.78;;;18.19;93.15
59787;BME280;45672;51.612;5.536;2022-09-09T14:02:48;100508.31;;;18.06;90.41
59787;BME280;45672;51.612;5.536;2022-09-09T14:05:14;100506.06;;;18.03;91.77
59787;BME280;45672;51.612;5.536;2022-09-09T14:07:41;100504.94;;;18.18;91.83
59787;BME280;45672;51.612;5.536;2022-09-09T14:10:08;100505.50;;;18.33;89.65
59787;BME280;45672;51.612;5.536;2022-09-09T14:12:33;100499.28;;;18.39;88.73
59787;BME280;45672;51.612;5.536;2022-09-09T14:14:59;100495.13;;;18.43;89.66
59787;BME280;45672;51.612;5.536;2022-09-09T14:17:27;100484.69;;;18.54;86.56
59787;BME280;45672;51.612;5.536;2022-09-09T14:19:55;100478.06;;;18.56;85.71
59787;BME280;45672;51.612;5.536;2022-09-09T14:22:21;100495.38;;;18.67;85.94
59787;BME280;45672;51.612;5.536;2022-09-09T14:24:47;100485.69;;;18.59;87.11
59787;BME280;45672;51.612;5.536;2022-09-09T14:27:12;100492.31;;;18.64;85.58
59787;BME280;45672;51.612;5.536;2022-09-09T14:29:37;100479.53;;;18.77;85.97
59787;BME280;45672;51.612;5.536;2022-09-09T14:32:03;100475.13;;;18.90;82.71
59787;BME280;45672;51.612;5.536;2022-09-09T14:34:28;100490.00;;;18.99;82.21
59787;BME280;45672;51.612;5.536;2022-09-09T14:36:53;100488.94;;;19.00;82.94
59787;BME280;45672;51.612;5.536;2022-09-09T14:39:19;100493.06;;;19.03;81.37
59787;BME280;45672;51.612;5.536;2022-09-09T14:41:44;100488.22;;;19.11;83.06